Weather History for Altus, OK

Change the Weather History Date:

Sunday, May 6, 2012

  Actual Average (KLTS) Record (KLTS)
Temperature  
Mean Temperature 78 °F -  
Max Temperature 89 °F 79 °F 95 °F (2000)
Min Temperature 68 °F 55 °F 41 °F (2013)
Cooling Degree Days 14    
Growing Degree Days 28 (Base 50)    
Moisture  
Dew Point 57 °F    
Average Humidity 49    
Maximum Humidity 78    
Minimum Humidity 18    
Precipitation  
Precipitation 0.00 in - - ()
Sea Level Pressure  
Sea Level Pressure 29.81 in    
Wind  
Wind Speed 12 mph (West)    
Max Wind Speed 30 mph    
Max Gust Speed 38 mph    
Visibility 10 miles    
Events      
Averages and records for this station are not official NWS values.
T = Trace of Precipitation, MM = Missing Value Source: NWS Daily Summary

Daily Weather History Graph

Daily Weather History Graph

Search for Another Location

Airport:

Trip Planner

Search our weather history database for the weather conditions in past years. The results will help you decide how hot, cold, wet, or windy it might be!

Date:

Astronomy

May. 06, 2012 Rise Set
Actual Time 6:41 AM CDT 8:26 PM CDT
Civil Twilight 6:14 AM CDT 8:54 PM CDT
Nautical Twilight 5:41 AM CDT 9:27 PM CDT
Astronomical Twilight 5:06 AM CDT 10:02 PM CDT
Moon 9:30 PM CDT (5/6) 6:55 AM CDT (5/6)
Length of Visible Light 14h 39m
Length of Day
13h 45m
Full, 100% of the Moon is Illuminated
May 6
Full
May 12
Last Quarter
May 20
New
May 28
First Quarter
Jun 4
Full

Hourly Weather History & Observations

Time (CDT) Temp. Heat Index Dew Point Humidity Pressure Visibility Wind Dir Wind Speed Gust Speed Precip Events Conditions
12:15 AM 80.6 °F 83.2 °F 68.0 °F 65% 29.77 in 10.0 mi SE 10.4 mph - N/A   Clear
12:35 AM 80.6 °F 83.2 °F 68.0 °F 65% 29.76 in 10.0 mi SE 11.5 mph - N/A   Clear
12:55 AM 78.8 °F - 66.2 °F 65% 29.76 in 10.0 mi ESE 9.2 mph - N/A   Clear
1:15 AM 78.8 °F - 66.2 °F 65% 29.75 in 10.0 mi SE 10.4 mph - N/A   Clear
1:35 AM 77.0 °F - 66.2 °F 69% 29.75 in 10.0 mi SE 11.5 mph - N/A   Clear
1:55 AM 78.8 °F - 64.4 °F 61% 29.76 in 10.0 mi SE 12.7 mph - N/A   Clear
2:15 AM 77.0 °F - 64.4 °F 65% 29.75 in 10.0 mi ESE 12.7 mph - N/A   Clear
2:35 AM 77.0 °F - 64.4 °F 65% 29.75 in 10.0 mi SE 10.4 mph - N/A   Clear
3:15 AM 73.4 °F - 64.4 °F 73% 29.74 in 10.0 mi ESE 10.4 mph - N/A   Clear
3:35 AM 73.4 °F - 64.4 °F 73% 29.74 in 10.0 mi ESE 10.4 mph - N/A   Clear
3:55 AM 71.6 °F - 64.4 °F 78% 29.74 in 10.0 mi SE 9.2 mph - N/A   Clear
4:15 AM 73.4 °F - 62.6 °F 69% 29.74 in 10.0 mi SE 10.4 mph - N/A   Clear
4:35 AM 73.4 °F - 62.6 °F 69% 29.75 in 10.0 mi SE 9.2 mph - N/A   Clear
5:15 AM 71.6 °F - 59.0 °F 64% 29.75 in 10.0 mi SE 9.2 mph - N/A   Clear
5:35 AM 71.6 °F - 59.0 °F 64% 29.75 in 10.0 mi SE 10.4 mph - N/A   Clear
5:55 AM 69.8 °F - 59.0 °F 68% 29.75 in 10.0 mi SE 8.1 mph - N/A   Clear
6:15 AM 69.8 °F - 57.2 °F 64% 29.75 in 10.0 mi ESE 6.9 mph - N/A   Clear
6:35 AM 68.0 °F - 59.0 °F 73% 29.75 in 10.0 mi ESE 8.1 mph - N/A   Clear
6:55 AM 68.0 °F - 55.4 °F 64% 29.77 in 10.0 mi SE 6.9 mph - N/A   Clear
7:15 AM 68.0 °F - 57.2 °F 68% 29.78 in 10.0 mi ESE 6.9 mph - N/A   Clear
7:35 AM 68.0 °F - 57.2 °F 68% 29.78 in 10.0 mi ESE 5.8 mph - N/A   Clear
7:55 AM 69.8 °F - 57.2 °F 64% 29.80 in 10.0 mi ESE 8.1 mph - N/A   Clear
8:15 AM 71.6 °F - 55.4 °F 57% 29.81 in 10.0 mi ESE 8.1 mph - N/A   Clear
8:35 AM 73.4 °F - 55.4 °F 53% 29.80 in 10.0 mi SE 9.2 mph - N/A   Clear
8:55 AM 75.2 °F - 55.4 °F 50% 29.80 in 10.0 mi SSE 6.9 mph - N/A   Clear
9:15 AM 80.6 °F 80.3 °F 53.6 °F 39% 29.81 in 10.0 mi SW 16.1 mph - N/A   Clear
9:55 AM 84.2 °F 82.8 °F 53.6 °F 35% 29.82 in 10.0 mi WSW 21.9 mph 28.8 mph N/A   Clear
10:15 AM 87.8 °F 85.7 °F 53.6 °F 31% 29.81 in 10.0 mi SW 29.9 mph 38.0 mph N/A   Scattered Clouds
10:35 AM 87.8 °F 85.7 °F 53.6 °F 31% 29.81 in 7.0 mi WSW 27.6 mph 34.5 mph N/A   Scattered Clouds
10:55 AM 87.8 °F 85.7 °F 53.6 °F 31% 29.82 in 10.0 mi WSW 28.8 mph 38.0 mph N/A   Scattered Clouds
11:15 AM 86.0 °F 84.2 °F 53.6 °F 33% 29.82 in 10.0 mi WSW 25.3 mph 33.4 mph N/A   Clear
11:35 AM 86.0 °F - 39.2 °F 19% 29.84 in 10.0 mi West 18.4 mph - N/A   Clear
11:55 AM 84.2 °F - 35.6 °F 18% 29.84 in 10.0 mi West 18.4 mph 23.0 mph N/A   Clear
12:15 PM 86.0 °F - 42.8 °F 22% 29.85 in 10.0 mi West 19.6 mph 26.5 mph N/A   Clear
12:35 PM 82.4 °F - 48.2 °F 30% 29.85 in 10.0 mi West 18.4 mph 26.5 mph N/A   Clear
12:55 PM 84.2 °F - 51.8 °F 33% 29.84 in 10.0 mi WNW 18.4 mph 26.5 mph N/A   Clear
1:15 PM 86.0 °F 84.2 °F 53.6 °F 33% 29.83 in 10.0 mi WNW 16.1 mph 23.0 mph N/A   Clear
1:35 PM 84.2 °F 82.8 °F 53.6 °F 35% 29.83 in 10.0 mi West 17.3 mph 21.9 mph N/A   Clear
1:55 PM 84.2 °F 82.8 °F 53.6 °F 35% 29.83 in 10.0 mi WNW 16.1 mph 21.9 mph N/A   Clear
2:15 PM 86.0 °F 84.2 °F 53.6 °F 33% 29.83 in 10.0 mi WNW 20.7 mph - N/A   Clear
2:35 PM 87.8 °F 85.7 °F 53.6 °F 31% 29.82 in 10.0 mi WNW 20.7 mph 26.5 mph N/A   Clear
2:55 PM 87.8 °F 85.7 °F 53.6 °F 31% 29.82 in 10.0 mi West 16.1 mph 19.6 mph N/A   Clear
3:15 PM 89.6 °F - 51.8 °F 27% 29.82 in 10.0 mi WNW 17.3 mph 23.0 mph N/A   Clear
3:35 PM 89.6 °F 87.3 °F 53.6 °F 29% 29.82 in 10.0 mi West 12.7 mph 21.9 mph N/A   Clear
3:55 PM 87.8 °F 85.7 °F 53.6 °F 31% 29.81 in 10.0 mi West 12.7 mph 17.3 mph N/A   Clear
4:15 PM 87.8 °F - 51.8 °F 29% 29.81 in 10.0 mi WNW 8.1 mph - N/A   Clear
4:35 PM 87.8 °F - 50.0 °F 27% 29.81 in 10.0 mi West 10.4 mph 16.1 mph N/A   Clear
4:55 PM 89.6 °F - 51.8 °F 27% 29.80 in 10.0 mi WNW 10.4 mph 16.1 mph N/A   Clear
5:15 PM 89.6 °F 87.3 °F 53.6 °F 29% 29.80 in 10.0 mi West 11.5 mph 18.4 mph N/A   Clear
5:35 PM 89.6 °F - 51.8 °F 27% 29.81 in 10.0 mi WNW 11.5 mph - N/A   Clear
6:35 PM 89.6 °F 87.3 °F 53.6 °F 29% 29.81 in 10.0 mi WNW 10.4 mph - N/A   Clear
6:55 PM 89.6 °F 87.3 °F 53.6 °F 29% 29.81 in 10.0 mi NW 11.5 mph 17.3 mph N/A   Clear
7:15 PM 87.8 °F 87.1 °F 59.0 °F 38% 29.81 in 10.0 mi NNW 21.9 mph 27.6 mph N/A   Scattered Clouds
7:35 PM 84.2 °F 83.8 °F 59.0 °F 42% 29.82 in 10.0 mi NNW 21.9 mph 27.6 mph N/A   Scattered Clouds
7:55 PM 80.6 °F 81.5 °F 60.8 °F 51% 29.82 in 10.0 mi NNW 15.0 mph - N/A   Clear
8:15 PM 80.6 °F 81.5 °F 60.8 °F 51% 29.82 in 10.0 mi NNW 15.0 mph - N/A   Clear
8:35 PM 78.8 °F - 60.8 °F 54% 29.83 in 10.0 mi North 12.7 mph - N/A   Clear
8:55 PM 77.0 °F - 60.8 °F 57% 29.84 in 10.0 mi North 11.5 mph - N/A   Clear
9:35 PM 75.2 °F - 60.8 °F 61% 29.88 in 10.0 mi North 11.5 mph - N/A   Clear
9:55 PM 73.4 °F - 60.8 °F 65% 29.90 in 10.0 mi NNW 9.2 mph - N/A   Clear
10:15 PM 73.4 °F - 60.8 °F 65% 29.90 in 10.0 mi North 12.7 mph - N/A   Clear
10:55 PM 71.6 °F - 60.8 °F 69% 29.92 in 10.0 mi North 12.7 mph - N/A   Clear
11:15 PM 71.6 °F - 60.8 °F 69% 29.92 in 10.0 mi North 12.7 mph - N/A   Clear
11:35 PM 71.6 °F - 60.8 °F 69% 29.92 in 10.0 mi North 11.5 mph - N/A   Clear
11:55 PM 69.8 °F - 60.8 °F 73% 29.92 in 10.0 mi North 10.4 mph - N/A   Clear